Time;durP1;ratioP1;P1;durP2;ratioP2;P2;SDS_P1;SDS_P2;PMS_P1;PMS_P2;Temp;Humidity;BMP_temperature;BMP_pressure;BME280_temperature;BME280_humidity;BME280_pressure;Samples;Min_cycle;Max_cycle;Signal;HPM_P1;HPM_P2
2022/06/17 00:02:14;;;;;;;2.78;0.47;;;;;;;18.48;100.00;100264.41;7400599;19;20011;-87
2022/06/17 00:04:40;;;;;;;0.45;0.17;;;;;;;18.49;100.00;100260.31;7399438;19;20029;-87
2022/06/17 00:07:12;;;;;;;0.95;0.43;;;;;;;18.46;100.00;100245.19;7402194;19;20021;-87
2022/06/17 00:09:39;;;;;;;4.47;0.50;;;;;;;18.41;100.00;100245.94;7399678;19;20014;-86
2022/06/17 00:12:11;;;;;;;0.60;0.20;;;;;;;18.29;100.00;100243.69;7400315;19;20018;-86
2022/06/17 00:15:11;;;;;;;0.95;0.50;;;;;;;18.34;100.00;100243.69;7396116;19;20350;-87
2022/06/17 00:17:23;;;;;;;1.50;0.65;;;;;;;18.31;100.00;100233.44;7401358;19;20014;-86
2022/06/17 00:19:50;;;;;;;0.77;0.68;;;;;;;18.25;100.00;100229.13;7397256;19;20017;-87
2022/06/17 00:22:16;;;;;;;0.60;0.50;;;;;;;18.16;100.00;100230.94;7399454;19;20037;-87
2022/06/17 00:24:43;;;;;;;2.65;0.70;;;;;;;18.06;100.00;100229.69;7398178;19;20022;-88
2022/06/17 00:27:10;;;;;;;2.63;0.55;;;;;;;18.03;100.00;100222.28;7399397;19;20022;-87
2022/06/17 00:29:37;;;;;;;1.15;0.45;;;;;;;17.97;100.00;100221.56;7397776;19;20701;-86
2022/06/17 00:32:03;;;;;;;3.30;0.38;;;;;;;17.97;100.00;100226.41;7397933;19;20026;-87
2022/06/17 00:34:29;;;;;;;1.00;0.50;;;;;;;17.82;100.00;100215.41;7396720;19;20018;-86
2022/06/17 00:36:59;;;;;;;1.65;0.50;;;;;;;17.35;100.00;100222.91;7401259;19;20014;-86
2022/06/17 00:39:35;;;;;;;0.55;0.43;;;;;;;17.18;100.00;100230.63;7396044;19;20014;-86
2022/06/17 00:42:14;;;;;;;1.45;0.32;;;;;;;17.06;100.00;100219.88;7395060;19;20029;-86
2022/06/17 00:44:48;;;;;;;0.43;0.40;;;;;;;17.17;100.00;100217.81;7397602;19;20032;-86
2022/06/17 00:47:30;;;;;;;0.90;0.38;;;;;;;17.32;100.00;100220.38;7400481;19;20024;-86
2022/06/17 00:50:20;;;;;;;1.00;0.40;;;;;;;17.60;100.00;100226.75;7397727;19;20078;-88
2022/06/17 00:53:05;;;;;;;0.73;0.30;;;;;;;17.62;100.00;100229.06;7397380;19;20476;-86
2022/06/17 00:55:35;;;;;;;3.30;0.60;;;;;;;17.33;100.00;100224.72;7395075;19;20015;-88
2022/06/17 00:58:04;;;;;;;3.10;1.15;;;;;;;17.34;100.00;100223.44;7402326;19;20412;-88
2022/06/17 01:00:32;;;;;;;2.72;0.65;;;;;;;17.39;100.00;100222.66;7398614;19;20006;-88
2022/06/17 01:03:05;;;;;;;2.45;0.55;;;;;;;17.35;100.00;100214.47;7396483;19;20015;-88
2022/06/17 01:05:54;;;;;;;3.13;0.45;;;;;;;17.32;100.00;100217.56;7395555;19;20021;-88
2022/06/17 01:11:31;;;;;;;0.10;0.10;;;;;;;17.37;100.00;100208.31;7394380;19;20015;-88
2022/06/17 01:13:59;;;;;;;1.25;0.65;;;;;;;17.38;100.00;100201.41;7393394;19;20034;-88
2022/06/17 01:16:30;;;;;;;0.47;0.30;;;;;;;17.29;100.00;100212.94;7394233;19;20030;-88
2022/06/17 01:19:23;;;;;;;10.38;0.80;;;;;;;17.13;100.00;100210.91;7393786;19;20091;-88
2022/06/17 01:22:08;;;;;;;0.60;0.28;;;;;;;17.01;100.00;100215.00;7393936;19;20010;-88
2022/06/17 01:24:35;;;;;;;2.22;0.85;;;;;;;16.89;100.00;100208.59;7395884;19;20019;-88
2022/06/17 01:27:01;;;;;;;1.48;0.55;;;;;;;16.80;100.00;100217.31;7394813;19;20496;-88
2022/06/17 01:29:27;;;;;;;1.10;0.65;;;;;;;16.73;100.00;100208.59;7395008;19;21031;-88
2022/06/17 01:31:55;;;;;;;5.90;0.40;;;;;;;16.81;100.00;100204.75;7396931;19;20019;-88
2022/06/17 01:34:21;;;;;;;0.75;0.20;;;;;;;16.84;100.00;100208.59;7396196;19;20019;-88
2022/06/17 01:36:49;;;;;;;1.52;0.57;;;;;;;17.04;100.00;100191.47;7394552;19;20353;-88
2022/06/17 01:39:17;;;;;;;7.20;1.60;;;;;;;17.23;100.00;100203.75;7394625;19;20007;-88
2022/06/17 01:41:46;;;;;;;3.60;0.82;;;;;;;17.37;100.00;100202.69;7395507;19;20034;-88
2022/06/17 01:44:17;;;;;;;0.52;0.52;;;;;;;17.41;100.00;100187.06;7394122;19;20018;-88
2022/06/17 01:46:46;;;;;;;0.35;0.35;;;;;;;17.49;100.00;100197.81;7394522;19;20019;-88
2022/06/17 01:49:16;;;;;;;1.65;0.43;;;;;;;17.64;100.00;100190.66;7397031;19;20371;-89
2022/06/17 01:52:14;;;;;;;0.55;0.32;;;;;;;17.71;100.00;100187.31;7397529;19;20330;-86
2022/06/17 01:54:47;;;;;;;15.32;0.65;;;;;;;17.76;100.00;100172.41;7395606;19;20025;-88
2022/06/17 01:57:18;;;;;;;1.90;0.73;;;;;;;17.76;100.00;100166.03;7404859;19;20009;-88
2022/06/17 01:59:55;;;;;;;1.55;0.57;;;;;;;17.71;100.00;100167.59;7406421;19;20010;-91
2022/06/17 02:02:25;;;;;;;0.55;0.17;;;;;;;17.75;100.00;100165.25;7403157;19;20038;-88
2022/06/17 02:04:57;;;;;;;0.38;0.30;;;;;;;17.85;100.00;100163.69;7399341;19;20007;-88
2022/06/17 02:07:34;;;;;;;1.63;0.28;;;;;;;17.95;100.00;100170.53;7398357;19;20011;-88
2022/06/17 02:10:01;;;;;;;4.18;0.85;;;;;;;17.96;100.00;100174.91;7402454;19;20015;-88
2022/06/17 02:12:30;;;;;;;0.50;0.20;;;;;;;17.99;100.00;100168.25;7399442;19;20035;-88
2022/06/17 02:15:02;;;;;;;1.10;0.63;;;;;;;18.10;100.00;100173.81;7392378;19;20014;-88
2022/06/17 02:18:05;;;;;;;2.05;0.35;;;;;;;18.28;100.00;100172.44;7396128;19;20011;-88
2022/06/17 02:20:38;;;;;;;0.57;0.57;;;;;;;18.33;100.00;100179.34;7396330;19;20074;-88
2022/06/17 02:23:05;;;;;;;0.38;0.10;;;;;;;18.34;100.00;100181.66;7394829;19;20025;-88
2022/06/17 02:25:37;;;;;;;1.13;0.43;;;;;;;18.26;100.00;100174.28;7392172;19;20091;-87
2022/06/17 02:28:07;;;;;;;1.00;0.25;;;;;;;18.05;100.00;100171.81;7393869;19;20380;-88
2022/06/17 02:30:34;;;;;;;1.42;0.68;;;;;;;18.09;100.00;100163.84;7395206;19;20042;-88
2022/06/17 02:33:05;;;;;;;3.22;0.60;;;;;;;18.14;100.00;100162.28;7392910;19;20033;-88
2022/06/17 02:35:41;;;;;;;0.55;0.10;;;;;;;18.08;100.00;100158.72;7393915;19;20018;-88
2022/06/17 02:38:14;;;;;;;1.17;0.20;;;;;;;17.98;100.00;100161.06;7392930;19;20014;-88
2022/06/17 02:40:44;;;;;;;0.60;0.40;;;;;;;17.92;100.00;100151.88;7397217;19;20920;-88
2022/06/17 02:43:15;;;;;;;0.43;0.28;;;;;;;17.90;100.00;100148.81;7394332;19;20367;-88
2022/06/17 02:46:13;;;;;;;1.08;0.40;;;;;;;17.81;100.00;100146.28;7391019;19;20022;-88
2022/06/17 02:48:51;;;;;;;1.52;0.40;;;;;;;17.76;100.00;100141.44;7392196;19;20010;-88
2022/06/17 02:51:19;;;;;;;0.95;0.43;;;;;;;17.73;100.00;100142.47;7400376;19;20011;-87
2022/06/17 02:53:46;;;;;;;0.57;0.30;;;;;;;17.73;100.00;100136.06;7397775;19;20014;-88
2022/06/17 02:56:20;;;;;;;0.47;0.30;;;;;;;17.74;100.00;100138.38;7399249;19;20546;-88
2022/06/17 02:59:08;;;;;;;2.60;0.40;;;;;;;17.75;100.00;100131.47;7400713;19;20348;-86
2022/06/17 03:01:40;;;;;;;1.60;0.30;;;;;;;17.74;100.00;100129.91;7399187;19;20014;-86
2022/06/17 03:04:32;;;;;;;0.30;0.22;;;;;;;17.74;100.00;100124.28;7400355;19;20011;-86
2022/06/17 03:07:01;;;;;;;0.60;0.10;;;;;;;17.78;100.00;100119.13;7398558;19;20007;-86
2022/06/17 03:09:32;;;;;;;0.90;0.38;;;;;;;17.76;100.00;100121.72;7400002;19;20532;-86
2022/06/17 03:12:06;;;;;;;1.67;0.40;;;;;;;17.74;100.00;100115.81;7400702;19;20011;-86
2022/06/17 03:15:02;;;;;;;0.93;0.20;;;;;;;17.69;100.00;100105.38;7397727;19;20500;-86
2022/06/17 03:17:30;;;;;;;1.73;0.52;;;;;;;17.69;100.00;100107.41;7400230;19;20069;-86
2022/06/17 03:19:59;;;;;;;1.10;0.47;;;;;;;17.64;100.00;100097.69;7400117;19;20078;-86
2022/06/17 03:22:27;;;;;;;0.20;0.10;;;;;;;17.57;100.00;100092.59;7400393;19;20361;-86
2022/06/17 03:25:10;;;;;;;0.35;0.10;;;;;;;17.54;100.00;100102.09;7398442;19;20021;-86
2022/06/17 03:27:48;;;;;;;0.75;0.10;;;;;;;17.47;100.00;100091.34;7395180;19;20015;-86
2022/06/17 03:30:23;;;;;;;0.50;0.30;;;;;;;17.43;100.00;100090.84;7390123;19;20382;-86
2022/06/17 03:32:59;;;;;;;0.60;0.55;;;;;;;17.39;100.00;100087.50;7397795;19;20038;-86
2022/06/17 03:35:31;;;;;;;1.10;0.52;;;;;;;17.34;100.00;100085.50;7397246;19;20061;-87
2022/06/17 03:38:02;;;;;;;0.60;0.38;;;;;;;17.33;100.00;100072.69;7400529;19;20006;-86
2022/06/17 03:40:36;;;;;;;;;;;;;;;17.36;100.00;100071.66;7403009;19;20074;-86
2022/06/17 03:43:06;;;;;;;0.10;0.10;;;;;;;17.29;100.00;100083.44;7399814;19;19938;-86
2022/06/17 03:45:52;;;;;;;0.60;0.22;;;;;;;17.26;100.00;100081.69;7396327;19;20025;-86
2022/06/17 03:48:39;;;;;;;3.22;0.57;;;;;;;17.29;100.00;100091.91;7399410;19;20007;-86
2022/06/17 03:51:13;;;;;;;1.95;0.28;;;;;;;17.27;100.00;100109.31;7401454;19;20075;-87
2022/06/17 03:53:41;;;;;;;0.63;0.30;;;;;;;17.23;100.00;100102.41;7398845;19;20048;-86
2022/06/17 03:56:16;;;;;;;0.85;0.22;;;;;;;17.20;100.00;100107.00;7397461;19;20010;-86
2022/06/17 03:58:44;;;;;;;0.50;0.45;;;;;;;17.14;100.00;100103.44;7398519;19;20011;-87
2022/06/17 04:01:19;;;;;;;0.70;0.40;;;;;;;17.12;100.00;100120.09;7399451;19;20014;-87
2022/06/17 04:03:58;;;;;;;0.52;0.30;;;;;;;17.08;100.00;100116.78;7396611;19;20018;-87
2022/06/17 04:06:34;;;;;;;3.35;0.57;;;;;;;16.99;100.00;100117.03;7397258;19;20010;-86
2022/06/17 04:09:12;;;;;;;1.08;0.20;;;;;;;16.96;100.00;100122.91;7396919;19;20013;-87
2022/06/17 04:11:42;;;;;;;0.47;0.32;;;;;;;16.93;100.00;100123.94;7399235;19;20432;-86
2022/06/17 04:14:24;;;;;;;0.40;0.30;;;;;;;16.93;100.00;100121.91;7396130;19;20033;-87
2022/06/17 04:16:52;;;;;;;;;;;;;;;16.89;100.00;100112.94;7399385;19;20007;-86
2022/06/17 04:19:22;;;;;;;0.30;0.20;;;;;;;16.82;100.00;100107.06;7397788;19;19974;-87
2022/06/17 04:21:56;;;;;;;0.73;0.73;;;;;;;16.72;100.00;100108.63;7401368;19;20014;-86
2022/06/17 04:24:27;;;;;;;7.78;0.30;;;;;;;16.61;100.00;100104.50;7396992;19;20475;-86
2022/06/17 04:27:11;;;;;;;0.43;0.30;;;;;;;16.53;100.00;100092.25;7399217;19;20029;-87
2022/06/17 04:29:44;;;;;;;0.20;0.15;;;;;;;16.41;100.00;100090.69;7398288;19;20810;-86
2022/06/17 04:32:16;;;;;;;0.20;0.20;;;;;;;16.35;100.00;100089.91;7396654;19;20014;-87
2022/06/17 04:34:43;;;;;;;1.27;0.22;;;;;;;16.34;100.00;100091.19;7396938;19;20014;-87
2022/06/17 04:37:19;;;;;;;0.30;0.20;;;;;;;16.23;100.00;100091.19;7396535;19;20018;-87
2022/06/17 04:40:30;;;;;;;2.28;0.38;;;;;;;16.18;100.00;100100.34;7397977;19;20010;-88
2022/06/17 04:43:35;;;;;;;0.57;0.17;;;;;;;16.17;100.00;100093.22;7396976;19;20377;-88
2022/06/17 04:46:10;;;;;;;1.20;0.35;;;;;;;16.16;100.00;100097.28;7397330;19;20026;-87
2022/06/17 04:48:39;;;;;;;0.30;0.20;;;;;;;16.03;100.00;100099.81;7397668;19;20041;-87
2022/06/17 04:51:06;;;;;;;0.40;0.32;;;;;;;16.24;100.00;100112.38;7399390;19;20014;-88
2022/06/17 04:53:33;;;;;;;9.23;0.60;;;;;;;16.24;100.00;100103.94;7396697;19;20483;-86
2022/06/17 04:56:36;;;;;;;4.40;0.40;;;;;;;16.36;100.00;100105.50;7395665;19;20010;-86
2022/06/17 04:59:40;;;;;;;10.18;0.45;;;;;;;16.30;100.00;100101.16;7396713;19;20016;-86
2022/06/17 05:02:14;;;;;;;0.50;0.32;;;;;;;16.21;100.00;100102.16;7400177;19;20130;-88
2022/06/17 05:04:59;;;;;;;0.68;0.50;;;;;;;16.29;100.00;100106.00;7395250;19;20014;-86
2022/06/17 05:07:29;;;;;;;0.82;0.63;;;;;;;16.37;100.00;100109.09;7394632;19;20349;-86
2022/06/17 05:10:05;;;;;;;4.05;0.40;;;;;;;16.57;100.00;100104.00;7395560;19;20162;-87
2022/06/17 05:12:45;;;;;;;1.45;0.40;;;;;;;16.68;100.00;100092.75;7397292;19;20006;-88
2022/06/17 05:15:15;;;;;;;1.27;0.95;;;;;;;16.76;100.00;100101.47;7393396;19;20010;-88
2022/06/17 05:17:42;;;;;;;0.70;0.40;;;;;;;16.81;100.00;100099.91;7395951;19;20014;-87
2022/06/17 05:20:18;;;;;;;1.17;0.22;;;;;;;16.96;100.00;100101.16;7394297;19;20042;-87
2022/06/17 05:22:46;;;;;;;1.08;0.85;;;;;;;17.02;100.00;100110.38;7396288;19;20010;-88
2022/06/17 05:25:19;;;;;;;2.00;0.22;;;;;;;17.11;100.00;100107.28;7393709;19;20018;-88
2022/06/17 05:27:45;;;;;;;0.43;0.22;;;;;;;17.16;100.00;100111.38;7393937;19;20075;-88
2022/06/17 05:30:12;;;;;;;2.95;0.43;;;;;;;17.12;100.00;100105.25;7396295;19;20007;-88
2022/06/17 05:32:44;;;;;;;1.92;0.60;;;;;;;17.03;100.00;100111.13;7396217;19;20034;-88
2022/06/17 05:35:11;;;;;;;2.35;0.88;;;;;;;17.08;100.00;100110.38;7395015;19;20014;-88
2022/06/17 05:37:37;;;;;;;3.05;0.50;;;;;;;17.16;100.00;100119.81;7394881;19;20034;-88
2022/06/17 05:40:08;;;;;;;4.18;0.47;;;;;;;17.31;100.00;100114.66;7394764;19;20465;-88
2022/06/17 05:42:37;;;;;;;1.08;0.40;;;;;;;17.39;100.00;100113.63;7395141;19;20011;-87
2022/06/17 05:45:04;;;;;;;0.70;0.40;;;;;;;17.54;100.00;100110.53;7394144;19;20010;-88
2022/06/17 05:48:09;;;;;;;0.70;0.57;;;;;;;17.55;100.00;100106.44;7395037;19;20011;-87
2022/06/17 05:51:10;;;;;;;0.82;0.47;;;;;;;17.77;100.00;100094.31;7393012;19;20010;-88
2022/06/17 05:53:48;;;;;;;1.65;0.75;;;;;;;18.05;100.00;100092.88;7396289;19;20082;-87
2022/06/17 05:56:33;;;;;;;1.30;0.30;;;;;;;18.30;100.00;100090.16;7399432;19;20059;-88
2022/06/17 05:59:00;;;;;;;1.35;0.35;;;;;;;18.48;100.00;100083.88;7395390;19;20017;-88
2022/06/17 06:01:27;;;;;;;0.70;0.22;;;;;;;18.65;100.00;100087.34;7394090;19;20386;-88
2022/06/17 06:03:53;;;;;;;0.65;0.20;;;;;;;18.78;100.00;100084.66;7394065;19;20054;-88
2022/06/17 06:06:20;;;;;;;1.50;0.40;;;;;;;18.89;100.00;100084.56;7399492;19;20010;-85
2022/06/17 06:08:50;;;;;;;1.02;0.47;;;;;;;19.01;100.00;100085.22;7393634;19;20416;-87
2022/06/17 06:11:16;;;;;;;1.00;0.35;;;;;;;19.06;100.00;100082.34;7395157;19;20521;-88
2022/06/17 06:13:44;;;;;;;2.80;0.45;;;;;;;19.20;100.00;100095.28;7393723;19;20433;-87
2022/06/17 06:16:15;;;;;;;0.45;0.22;;;;;;;19.40;100.00;100094.09;7394262;19;20432;-88
2022/06/17 06:18:50;;;;;;;0.30;0.30;;;;;;;19.61;100.00;100095.88;7394815;19;20019;-87
2022/06/17 06:21:18;;;;;;;1.08;0.40;;;;;;;19.89;100.00;100097.56;7392311;19;20078;-87
2022/06/17 06:23:46;;;;;;;0.30;0.10;;;;;;;20.19;100.00;100092.53;7391654;19;20051;-85
2022/06/17 06:26:20;;;;;;;0.90;0.10;;;;;;;20.42;100.00;100090.94;7396321;19;20054;-88
2022/06/17 06:28:51;;;;;;;0.40;0.10;;;;;;;20.61;100.00;100080.34;7389675;19;20015;-88
2022/06/17 06:31:30;;;;;;;0.38;0.20;;;;;;;20.81;100.00;100071.22;7392392;19;20057;-87
2022/06/17 06:33:59;;;;;;;0.57;0.25;;;;;;;20.98;100.00;100080.22;7396256;19;20401;-87
2022/06/17 06:36:28;;;;;;;0.10;0.10;;;;;;;21.07;100.00;100076.94;7397452;19;20014;-87
2022/06/17 06:38:55;;;;;;;0.40;0.22;;;;;;;21.13;100.00;100077.63;7392082;19;20020;-87
2022/06/17 06:41:22;;;;;;;0.17;0.10;;;;;;;21.10;100.00;100078.72;7393478;19;20070;-88
2022/06/17 06:43:49;;;;;;;2.72;0.22;;;;;;;21.11;100.00;100071.72;7392709;19;20368;-88
2022/06/17 06:46:37;;;;;;;2.63;0.10;;;;;;;21.11;100.00;100071.72;7396974;19;20416;-88
2022/06/17 06:49:04;;;;;;;0.10;0.00;;;;;;;21.04;100.00;100077.28;7395449;19;20011;-88
2022/06/17 06:51:32;;;;;;;2.95;0.30;;;;;;;20.99;100.00;100076.06;7393441;19;20019;-86
2022/06/17 06:53:59;;;;;;;1.60;0.15;;;;;;;20.92;100.00;100067.44;7393320;19;20027;-88
2022/06/17 06:56:25;;;;;;;0.50;0.10;;;;;;;20.88;100.00;100059.25;7395365;19;20011;-88
2022/06/17 06:58:52;;;;;;;0.60;0.10;;;;;;;20.78;100.00;100065.88;7394532;19;20322;-85
2022/06/17 07:01:18;;;;;;;0.25;0.15;;;;;;;20.62;100.00;100064.13;7395218;19;20078;-88
2022/06/17 07:03:44;;;;;;;0.25;0.13;;;;;;;20.51;100.00;100067.13;7393022;19;20044;-88
2022/06/17 07:06:10;;;;;;;0.40;0.20;;;;;;;20.39;100.00;100052.41;7395030;19;20029;-86
2022/06/17 07:08:37;;;;;;;0.10;0.00;;;;;;;20.35;100.00;100051.94;7390949;19;20025;-84
2022/06/17 07:11:05;;;;;;;1.08;0.20;;;;;;;20.44;100.00;100053.59;7393642;19;20019;-88
2022/06/17 07:13:31;;;;;;;0.90;0.10;;;;;;;20.40;100.00;100056.72;7392699;19;20088;-88
2022/06/17 07:15:59;;;;;;;1.10;0.13;;;;;;;20.33;100.00;100043.25;7395156;19;20038;-88
2022/06/17 07:18:32;;;;;;;0.70;0.40;;;;;;;20.32;100.00;100041.69;7392049;19;20017;-88
2022/06/17 07:21:01;;;;;;;0.88;0.32;;;;;;;20.39;100.00;100035.41;7391966;19;20025;-87
2022/06/17 07:23:36;;;;;;;2.38;0.22;;;;;;;20.45;100.00;100033.25;7393961;19;20112;-88
2022/06/17 07:26:08;;;;;;;2.30;0.20;;;;;;;20.45;100.00;100021.94;7394816;19;20018;-87
2022/06/17 07:28:35;;;;;;;5.43;0.22;;;;;;;20.52;100.00;100024.13;7394676;19;20006;-89
2022/06/17 07:31:01;;;;;;;0.93;0.32;;;;;;;20.79;100.00;100025.69;7392863;19;20018;-86
2022/06/17 07:33:30;;;;;;;1.48;0.28;;;;;;;21.03;100.00;100014.22;7392313;19;20026;-85
2022/06/17 07:36:01;;;;;;;7.15;0.32;;;;;;;21.21;100.00;100011.81;7396783;19;20039;-86
2022/06/17 07:41:22;;;;;;;0.93;0.17;;;;;;;21.37;100.00;100013.56;7400882;19;20019;-88
2022/06/17 07:43:48;;;;;;;0.57;0.10;;;;;;;21.48;100.00;100014.09;7398737;19;20022;-88
2022/06/17 07:46:15;;;;;;;0.80;0.10;;;;;;;21.53;100.00;100020.94;7400529;19;20467;-88
2022/06/17 07:48:42;;;;;;;0.85;0.25;;;;;;;21.68;100.00;100007.72;7400200;19;20035;-86
2022/06/17 07:51:09;;;;;;;0.20;0.20;;;;;;;21.87;100.00;100010.44;7396559;19;20007;-86
2022/06/17 07:53:41;;;;;;;4.07;0.40;;;;;;;22.11;100.00;100015.78;7399554;19;20018;-87
2022/06/17 07:56:09;;;;;;;0.80;0.25;;;;;;;22.11;100.00;100015.78;7400226;19;20011;-87
2022/06/17 07:58:35;;;;;;;1.20;0.50;;;;;;;22.13;100.00;100016.00;7401741;19;20018;-87
2022/06/17 08:01:01;;;;;;;1.63;0.40;;;;;;;22.18;100.00;100017.16;7400162;19;20022;-86
2022/06/17 08:03:27;;;;;;;0.20;0.10;;;;;;;22.43;100.00;100021.97;7398088;19;20065;-88
2022/06/17 08:05:56;;;;;;;0.98;0.10;;;;;;;22.60;100.00;100018.72;7399135;19;20024;-87
2022/06/17 08:08:24;;;;;;;0.75;0.25;;;;;;;22.84;100.00;100015.50;7395913;19;20018;-87
2022/06/17 08:10:55;;;;;;;0.80;0.17;;;;;;;22.99;100.00;100014.84;7401241;19;20015;-88
2022/06/17 08:13:22;;;;;;;6.47;0.15;;;;;;;23.19;100.00;100016.88;7396810;19;20429;-87
2022/06/17 08:15:51;;;;;;;0.20;0.10;;;;;;;23.36;100.00;100020.03;7397987;19;20014;-85
2022/06/17 08:18:17;;;;;;;0.75;0.15;;;;;;;23.48;100.00;100015.53;7400094;19;20014;-88
2022/06/17 08:20:43;;;;;;;0.40;0.10;;;;;;;23.59;100.00;100003.06;7398509;19;20010;-90
2022/06/17 08:23:10;;;;;;;0.30;0.10;;;;;;;23.87;100.00;99994.44;7398212;19;20014;-89
2022/06/17 08:25:37;;;;;;;1.80;0.20;;;;;;;23.98;100.00;99992.00;7398827;19;20022;-87
2022/06/17 08:28:07;;;;;;;2.83;0.10;;;;;;;24.13;100.00;99987.72;7397187;19;20026;-87
2022/06/17 08:30:38;;;;;;;0.20;0.10;;;;;;;24.33;100.00;99986.78;7396636;19;20021;-86
2022/06/17 08:33:04;;;;;;;0.32;0.00;;;;;;;24.62;100.00;99988.13;7397996;19;20026;-85
2022/06/17 08:35:33;;;;;;;1.48;0.00;;;;;;;24.72;100.00;99989.81;7397533;19;20086;-86
2022/06/17 08:38:11;;;;;;;1.92;0.32;;;;;;;24.86;100.00;99981.88;7396461;19;20013;-86
2022/06/17 08:40:50;;;;;;;0.68;0.20;;;;;;;24.95;100.00;99981.25;7397590;19;20051;-86
2022/06/17 08:43:16;;;;;;;0.50;0.10;;;;;;;25.06;100.00;99980.84;7395552;19;20010;-86
2022/06/17 08:46:10;;;;;;;0.55;0.10;;;;;;;25.12;100.00;99977.81;7392810;19;20026;-85
2022/06/17 08:48:36;;;;;;;0.40;0.20;;;;;;;25.26;100.00;99977.00;7394299;19;20014;-86
2022/06/17 08:51:31;;;;;;;0.57;0.10;;;;;;;25.42;100.00;99978.50;7395378;19;20029;-87
2022/06/17 08:54:15;;;;;;;0.52;0.10;;;;;;;25.68;99.46;99976.50;7396294;19;20010;-86
2022/06/17 08:57:25;;;;;;;1.30;0.10;;;;;;;25.75;99.58;99970.00;7395984;19;20023;-88
2022/06/17 09:00:15;;;;;;;0.65;0.20;;;;;;;25.94;100.00;99970.25;7398876;19;20064;-86
2022/06/17 09:03:13;;;;;;;0.95;0.20;;;;;;;26.06;100.00;99968.47;7395662;19;20078;-86
2022/06/17 09:05:53;;;;;;;0.57;0.10;;;;;;;26.14;98.17;99977.78;7395637;19;20054;-87
2022/06/17 09:08:41;;;;;;;0.43;0.20;;;;;;;26.30;95.33;99962.03;7394525;19;20021;-87
2022/06/17 09:11:29;;;;;;;4.78;0.38;;;;;;;26.48;97.48;99960.75;7397564;19;20488;-88
2022/06/17 09:14:04;;;;;;;1.05;0.10;;;;;;;26.56;98.20;99950.00;7394947;19;20018;-89
2022/06/17 09:16:59;;;;;;;10.80;0.20;;;;;;;26.62;94.02;99953.38;7398468;19;20010;-89
2022/06/17 09:19:33;;;;;;;1.05;0.10;;;;;;;26.79;93.89;99950.56;7394847;19;20007;-88
2022/06/17 09:22:34;;;;;;;0.28;0.15;;;;;;;26.94;95.53;99941.84;7397835;19;20035;-89
2022/06/17 09:25:06;;;;;;;0.98;0.20;;;;;;;27.17;93.38;99943.69;7390894;19;20058;-89
2022/06/17 09:27:45;;;;;;;0.43;0.00;;;;;;;27.30;96.28;99935.53;7394504;19;20478;-89
2022/06/17 09:30:15;;;;;;;0.10;0.00;;;;;;;27.38;91.74;99947.66;7397244;19;20016;-90
2022/06/17 09:32:43;;;;;;;0.20;0.20;;;;;;;27.48;90.37;99950.59;7398283;19;20461;-89
2022/06/17 09:35:24;;;;;;;1.85;0.00;;;;;;;27.56;92.87;99945.53;7395172;19;20483;-89
2022/06/17 09:37:57;;;;;;;;;;;;;;;27.65;92.93;99953.41;7401452;19;20014;-89
2022/06/17 09:40:30;;;;;;;1.05;0.17;;;;;;;27.71;88.75;99946.09;7397330;19;19910;-88
2022/06/17 09:42:57;;;;;;;0.68;0.22;;;;;;;27.81;88.45;99954.72;7397478;19;20340;-88
2022/06/17 09:46:04;;;;;;;0.30;0.15;;;;;;;28.02;85.86;99940.69;7393342;19;20465;-87
2022/06/17 09:48:58;;;;;;;4.18;0.20;;;;;;;28.17;85.49;99948.28;7396807;19;20015;-88
2022/06/17 09:51:37;;;;;;;0.57;0.28;;;;;;;28.30;88.49;99934.34;7397297;19;20006;-89
2022/06/17 09:54:25;;;;;;;0.32;0.10;;;;;;;28.39;87.49;99927.13;7394262;19;20019;-88
2022/06/17 09:56:59;;;;;;;0.68;0.10;;;;;;;28.42;83.62;99923.81;7397653;19;20017;-88
2022/06/17 09:59:38;;;;;;;0.47;0.10;;;;;;;28.61;87.19;99930.97;7394530;19;20028;-88
2022/06/17 10:02:30;;;;;;;0.38;0.10;;;;;;;28.90;86.63;99923.91;7393626;19;20021;-89
2022/06/17 10:05:00;;;;;;;3.92;0.45;;;;;;;29.00;81.19;99927.53;7393711;19;20031;-88
2022/06/17 10:07:29;;;;;;;7.75;0.22;;;;;;;29.21;82.45;99918.38;7397950;19;20033;-89
2022/06/17 10:10:34;;;;;;;0.30;0.10;;;;;;;29.21;87.88;99919.13;7393885;19;20010;-89
2022/06/17 10:13:22;;;;;;;0.20;0.03;;;;;;;29.34;83.16;99911.41;7393075;19;20128;-88
2022/06/17 10:19:21;;;;;;;0.43;0.10;;;;;;;29.67;80.82;99901.66;7396359;19;20017;-88
2022/06/17 10:22:27;;;;;;;0.28;0.10;;;;;;;29.82;84.77;99889.84;7397899;19;20031;-88
2022/06/17 10:25:35;;;;;;;7.38;0.17;;;;;;;30.07;81.03;99897.31;7396581;19;20011;-88
2022/06/17 10:28:20;;;;;;;2.75;0.10;;;;;;;30.03;78.58;99885.53;7393309;19;20033;-88
2022/06/17 10:31:22;;;;;;;0.57;0.20;;;;;;;30.01;80.31;99882.53;7394909;19;20773;-86
2022/06/17 10:33:48;;;;;;;1.15;0.22;;;;;;;29.96;79.72;99888.00;7391144;19;20039;-87
2022/06/17 10:36:15;;;;;;;0.22;0.00;;;;;;;30.01;80.76;99873.91;7395895;19;20007;-89
2022/06/17 10:38:45;;;;;;;0.85;0.22;;;;;;;29.96;79.44;99870.75;7392879;19;20092;-89
2022/06/17 10:41:12;;;;;;;0.82;0.17;;;;;;;29.81;83.34;99868.25;7394828;19;20077;-87
2022/06/17 10:43:50;;;;;;;2.28;0.52;;;;;;;29.78;83.58;99869.47;7395155;19;20007;-89
2022/06/17 10:46:21;;;;;;;1.70;0.20;;;;;;;29.91;80.59;99871.84;7394765;19;20011;-86
2022/06/17 10:49:00;;;;;;;0.50;0.10;;;;;;;30.11;79.85;99871.75;7394185;19;20018;-86
2022/06/17 10:51:27;;;;;;;0.20;0.10;;;;;;;30.34;81.00;99860.47;7395060;19;20022;-88
2022/06/17 10:54:00;;;;;;;0.45;0.10;;;;;;;30.51;78.89;99865.94;7393372;19;20082;-87
2022/06/17 10:56:58;;;;;;;3.58;0.10;;;;;;;30.84;77.50;99863.13;7394224;19;20014;-88
2022/06/17 10:59:35;;;;;;;0.43;0.00;;;;;;;31.03;79.87;99858.00;7393832;19;20011;-86
2022/06/17 11:02:02;;;;;;;1.65;0.10;;;;;;;31.27;79.18;99862.44;7393214;19;20019;-88
2022/06/17 11:04:32;;;;;;;2.45;0.30;;;;;;;31.45;77.13;99862.16;7391849;19;20366;-88
2022/06/17 11:07:06;;;;;;;;;;;;;;;31.42;77.46;99859.13;7395374;19;20015;-88
2022/06/17 11:09:40;;;;;;;0.38;0.10;;;;;;;31.26;78.53;99863.81;7398092;19;20280;-89
2022/06/17 11:12:16;;;;;;;3.15;0.40;;;;;;;31.26;79.21;99863.81;7404574;19;20010;-89
2022/06/17 11:14:45;;;;;;;4.55;0.25;;;;;;;31.26;77.15;99860.94;7400266;19;20027;-87
2022/06/17 11:17:40;;;;;;;5.93;0.40;;;;;;;31.52;76.94;99852.53;7403634;19;20019;-87
2022/06/17 11:20:16;;;;;;;0.43;0.00;;;;;;;31.74;77.14;99860.44;7402128;19;20014;-88
2022/06/17 11:22:52;;;;;;;0.10;0.00;;;;;;;32.09;75.73;99851.84;7401288;19;20391;-88
2022/06/17 11:25:46;;;;;;;0.80;0.35;;;;;;;32.37;73.54;99850.69;7401660;19;20025;-88
2022/06/17 11:28:25;;;;;;;0.85;0.08;;;;;;;32.55;79.37;99843.13;7400100;19;20022;-89
2022/06/17 11:30:58;;;;;;;5.00;0.13;;;;;;;32.42;79.46;99846.66;7400179;19;20026;-89
2022/06/17 11:33:32;;;;;;;1.02;0.17;;;;;;;32.42;78.40;99840.88;7399701;19;20014;-89
2022/06/17 11:36:09;;;;;;;1.42;0.10;;;;;;;32.58;81.70;99838.25;7399987;19;20018;-88
2022/06/17 11:38:35;;;;;;;4.43;0.15;;;;;;;32.59;78.98;99834.75;7403053;19;20018;-89
2022/06/17 11:41:03;;;;;;;2.35;0.08;;;;;;;32.53;80.13;99828.59;7400065;19;20090;-90
2022/06/17 11:43:38;;;;;;;2.30;0.30;;;;;;;32.44;78.12;99820.84;7399784;19;20027;-89
2022/06/17 11:46:12;;;;;;;2.83;0.20;;;;;;;32.42;77.89;99823.59;7400360;19;20018;-90
2022/06/17 11:48:42;;;;;;;5.10;0.20;;;;;;;32.41;80.32;99819.22;7402523;19;20011;-87
2022/06/17 11:51:24;;;;;;;;;;;;;;;32.35;76.90;99818.84;7399880;19;20419;-89
2022/06/17 11:53:56;;;;;;;1.10;0.45;;;;;;;32.39;78.40;99812.56;7399813;19;19981;-89
2022/06/17 11:56:34;;;;;;;2.60;0.30;;;;;;;32.16;81.93;99814.09;7400155;19;20014;-90
2022/06/17 11:59:15;;;;;;;1.83;0.30;;;;;;;31.75;81.19;99823.78;7403362;19;20066;-89
2022/06/17 12:01:47;;;;;;;2.03;0.55;;;;;;;31.47;89.16;99824.88;7400310;19;20022;-91
2022/06/17 12:04:40;;;;;;;0.60;0.20;;;;;;;31.13;88.91;99821.25;7398767;19;20047;-91
2022/06/17 12:07:34;;;;;;;2.25;0.40;;;;;;;30.84;85.92;99809.22;7399574;19;20007;-89